CYRL

Red Lake Airport

Red Lake, Ontario, Canada
METAR CYRL 100300Z 20006KT 15SM SKC M11/M13 A2998 RMK LAST STFD OBS/NEXT 101000 UTC SLP190
Observed Flight Rules
Dec-10 @ 03:00 UTC (5 hours ago) Visual Flight Rules
Wind Visibility Clouds
200° at 6 knots 15 miles
  • Clear skies
Temperatures Readings
Current -11°C / 12°F
Dewpoint -13°C / 9°F
Humidity 85%
Altimeter 29.98" Hg
Pressure 1019 hPa
Elevation 383
METAR CYRL 100300Z 20006KT 15SM SKC M11/M13 A2998 RMK LAST STFD OBS/NEXT 101000 UTC SLP190
Observed Flight Rules
Dec-10 @ 03:00 UTC
(5 hours ago)
VFR
Wind Visibility
200° at 6 knots 15 miles
Clouds
  • Clear skies
Temperature Dewpoint
-11°C / 12°F -13°C / 9°F
Humidity Altimeter Pressure
85% 29.98" Hg 1019 hPa